Winton Post Office, Australia
Current Conditions -  °F | °C
As of 6:00 PM on Monday 26 Jan 2015 (Local Time) from YLRE Reporting Station
Clear Clear  
Wind Chill: 39°   Ceiling: Unl
Heat Index: 39°   Visibility: 6mi
Dew Point:   Wind: 15mph
Humidity: 12%   Direction: 210°SSW
Pressure: 29.59"   Gusts: NA
Location:  22.38°S, 143.03°E
Report Text: YLRE 260800Z AUTO 21013KT 9999 // NCD 39/05 Q1002
Loading
Personal Weather Stations






























Interactive Weather Map New forecast layout! Learn more

10-Day Weather Forecast

Advertisements
Track Severe Weather on mobile